Lake Cumberland Regional Airport
KSME : rendu visible

Aérodrome :











RETROUVEZ-NOUS SUR...

 
LOGIN :

S'inscrire | Disclaimer

   EN    FR    IT 

 









Légende :    VFR   VFR Marginal   IFR   IFR Intensif   IFR Très Intensif
Visi : 
Plafond : 
>= 8 km
>= 3000ft
5 à 8 km
1000 à 3000 ft
1500m à 5 km
500 à 1000 ft
800 à 1500m
200 à 500 ft
< 800m
< 200 ft
Symboles :   Orages  Brouillard  Fortes neiges  Fortes précipitations  Vent > 20 kt






- Altitude de l'aérodrome : 927 ft


KSME - Lake Cumberland Regional

DERNIER METAR :
  • 211555Z AUTO 16004KT 10SM CLR 11/02 A3019 RMK AO2

METARs EXPIRÉS :
  • 211535Z AUTO 17004KT 10SM CLR 11/02 A3020 RMK AO2
  • 211515Z AUTO 14004KT 10SM CLR 11/02 A3020 RMK AO2
  • 211455Z AUTO 00000KT 10SM CLR 09/02 A3021 RMK AO2
  • 211435Z AUTO 13003KT 10SM CLR 08/02 A3022 RMK AO2
  • 211415Z AUTO 15004KT 10SM CLR 07/02 A3022 RMK AO2
  • 211355Z AUTO 16003KT 10SM CLR 07/02 A3022 RMK AO2
  • 211335Z AUTO 00000KT 10SM CLR 07/02 A3021 RMK AO2 TSNO
  • 211315Z AUTO 00000KT 10SM CLR 06/02 A3021 RMK AO2

TAF KSME
Valide du 21 à 12h jusqu'au 22 à 12h UTC


211134Z 2112/2212 00000KT P6SM BKN200
FM211500 22008KT P6SM BKN200
FM212200 22008KT P6SM VCSH BKN080
FM220000 21008KT P6SM OVC050
FM220800 23007KT 3SM -RA BR OVC030



MET'MAP, la Météo Aéronautique d'un coup d'oeil ! - Copyright ORBIFLY Décembre 2007 - Disclaimer

ORBIFLY MET'MAP TEAM :

Programmation & Développement : Alexandra Zaïnal
Conception & Développement : Baudouin d'Aumeries
Co-Programmation & Développement : Marc-Olivier Méhu
Soutien technique & logistique : Manuel Goepfert

Contact : metmap@orbifly.com




SOURCES & CREDITS :

   NOAA       Earth
Advisory